Flight Track Log - Related Links

Times and Time Zones

All times are in EDT time to prevent confusion due to time zone crossing. See the RPA3228 flight status page for this flight to view local times or setup timezone preferences in your user account.

Time Position Orientation Groundspeed Altitude Reporting Facility
EDT Latitude Longitude Course Direction KTS MPH feet Rate Location/Type
Mon 07:41:20 AM 36.1333 -86.6500 56° Northeast 161 185 1,300  Level Nashville TRACON
Mon 07:42:44 AM 36.1833 -86.5667 53° Northeast 249 287 4,800 2,762 Climbing Nashville TRACON
Mon 07:43:00 AM 36.2504 -86.2998 64° Northeast  Level Estimated
Mon 07:43:26 AM 36.1833 -86.5167 90° East 255 293 7,100  Level Nashville TRACON
Mon 07:44:00 AM 36.2921 -86.1734 68° East  Level Estimated
Mon 07:44:40 AM 36.1914 -86.4069 85° East 308 354 10,700  Level Memphis Center
Mon 07:45:00 AM 36.3336 -86.0469 50° Northeast  Level Estimated
Mon 07:45:40 AM 36.1944 -86.3014 88° East 314 361 13,300  Level Memphis Center
Mon 07:46:00 AM 36.3751 -85.9203 56° Northeast  Level Estimated
Mon 07:46:40 AM 36.1989 -86.1828 87° East 326 375 15,900  Level Memphis Center
Mon 07:47:40 AM 36.2092 -86.0614 84° East 352 405 18,300 2,400 Climbing Memphis Center
Mon 07:49:55 AM 36.3189 -85.8033 62° Northeast 386 444 23,700 2,223 Climbing Indianapolis Center
Mon 07:50:57 AM 36.3750 -85.6864 59° Northeast 391 450 25,600 1,610 Climbing Indianapolis Center
Mon 07:51:58 AM 36.4333 -85.5653 59° Northeast 405 466 27,000 683 Climbing Indianapolis Center
Mon 07:53:00 AM 36.5031 -85.4181 59° Northeast 409 471 27,000 387 Level Indianapolis Center
Mon 07:54:02 AM 36.5378 -85.2842 72° East 417 480 27,800 1,171 Climbing Indianapolis Center
Mon 07:55:03 AM 36.5503 -85.1392 84° East 422 486 29,400 1,756 Climbing Indianapolis Center
Mon 07:56:05 AM 36.5833 -85.0019 73° East 415 478 31,400 1,742 Climbing Indianapolis Center
Mon 07:57:07 AM 36.6272 -84.8706 67° East 410 472 33,000 780 Climbing Indianapolis Center
Mon 07:58:08 AM 36.6692 -84.7408 68° East 403 464 33,000  Level Indianapolis Center
Mon 07:59:10 AM 36.7094 -84.6142 68° East 394 453 33,000  Level Indianapolis Center
Mon 08:00:12 AM 36.7547 -84.4825 67° East 387 445 33,000  Level Indianapolis Center
Mon 08:01:13 AM 36.7981 -84.3594 66° East 386 444 33,000  Level Indianapolis Center
Mon 08:02:15 AM 36.8944 -84.3108 22° Northeast 368 423 33,000  Level Indianapolis Center
Mon 08:03:16 AM 36.9989 -84.2972 North 374 430 33,000  Level Indianapolis Center
Mon 08:04:18 AM 37.1119 -84.2478 19° North 378 435 33,000  Level Indianapolis Center
Mon 08:05:20 AM 37.1586 -84.1231 65° Northeast 405 466 33,000  Level Indianapolis Center
Mon 08:06:21 AM 37.1889 -83.9856 75° East 408 470 33,000  Level Indianapolis Center
Mon 08:07:23 AM 37.2028 -83.8400 83° East 419 482 33,000  Level Indianapolis Center
Mon 08:08:25 AM 37.2139 -83.6950 84° East 418 481 33,000  Level Indianapolis Center
Mon 08:09:26 AM 37.2272 -83.5506 83° East 417 480 33,000  Level Indianapolis Center
Mon 08:10:28 AM 37.2406 -83.4083 83° East 412 474 33,000  Level Indianapolis Center
Mon 08:11:30 AM 37.2539 -83.2644 83° East 412 474 33,000  Level Indianapolis Center
Mon 08:12:31 AM 37.2689 -83.0969 84° East 410 472 33,000  Level Indianapolis Center
Mon 08:13:33 AM 37.2847 -82.9533 82° East 411 473 33,000  Level Indianapolis Center
Mon 08:14:35 AM 37.3211 -82.8169 71° East 411 473 33,000  Level Indianapolis Center
Mon 08:15:36 AM 37.3583 -82.6825 71° East 407 468 33,000  Level Indianapolis Center
Mon 08:16:38 AM 37.3953 -82.5486 71° East 404 465 33,000  Level Indianapolis Center
Mon 08:17:40 AM 37.4339 -82.4153 70° East 404 465 33,000  Level Indianapolis Center
Mon 08:18:41 AM 37.4694 -82.2806 72° East 405 466 33,000  Level Indianapolis Center
Mon 08:19:43 AM 37.5072 -82.1489 70° East 399 459 33,000  Level Indianapolis Center
Mon 08:20:45 AM 37.5497 -81.9925 71° East 403 464 33,000  Level Indianapolis Center
Mon 08:21:46 AM 37.5861 -81.8583 71° East 404 465 33,000  Level Indianapolis Center
Mon 08:22:48 AM 37.6222 -81.7242 71° East 403 464 33,000  Level Indianapolis Center
Mon 08:23:49 AM 37.6569 -81.5903 72° East 402 463 33,000  Level Indianapolis Center
Mon 08:24:51 AM 37.7361 -81.5022 41° Northeast 391 450 33,000  Level Indianapolis Center
Mon 08:25:53 AM 37.8161 -81.3989 46° Northeast 390 449 33,000  Level Indianapolis Center
Mon 08:26:54 AM 37.8561 -81.2594 70° East 402 463 33,000  Level Indianapolis Center
Mon 08:27:56 AM 37.8939 -81.1258 70° East 403 464 33,000  Level Indianapolis Center
Mon 08:28:58 AM 37.9303 -80.9922 71° East 404 465 33,000  Level Indianapolis Center
Mon 08:30:00 AM 37.9675 -80.8581 71° East 403 464 33,000  Level Indianapolis Center
Mon 08:31:01 AM 38.0036 -80.7239 71° East 404 465 33,000  Level Indianapolis Center
Mon 08:32:03 AM 38.0414 -80.5892 70° East 405 466 33,000  Level Indianapolis Center
Mon 08:33:05 AM 38.0775 -80.4547 71° East 404 465 33,000  Level Indianapolis Center
Mon 08:34:06 AM 38.1214 -80.2933 71° East 405 466 33,000  Level Indianapolis Center
Mon 08:35:08 AM 38.1575 -80.1583 71° East 404 465 33,000  Level Indianapolis Center
Mon 08:36:10 AM 38.1911 -80.0344 71° East 408 470 33,000  Level Indianapolis Center
Mon 08:37:11 AM 38.2333 -79.8764 71° East 405 466 33,000  Level Indianapolis Center
Mon 08:38:13 AM 38.2697 -79.7431 71° East 409 471 33,000  Level Indianapolis Center
Mon 08:39:15 AM 38.3117 -79.6147 67° East 404 465 33,000  Level Indianapolis Center
Mon 08:40:16 AM 38.3556 -79.4872 66° East 403 464 33,000 -850 Level Indianapolis Center
Mon 08:41:22 AM 38.4131 -79.3333 64° Northeast 404 465 31,200 -1,843 Descending Washington Center
Mon 08:42:23 AM 38.4422 -79.2047 74° East 404 465 29,100 -2,118 Descending Washington Center
Mon 08:43:21 AM 38.4672 -79.0603 77° East 409 471 27,000 -1,109 Descending Washington Center
Mon 08:44:22 AM 38.4922 -78.9156 78° East 415 478 26,900 -1,180 Descending Washington Center
Mon 08:45:23 AM 38.5153 -78.7519 80° East 415 478 24,600 -2,168 Descending Washington Center
Mon 08:46:21 AM 38.5378 -78.6069 79° East 415 478 22,600 -1,576 Descending Washington Center
Mon 08:47:21 AM 38.5622 -78.4644 78° East 415 478 21,500 -1,190 Descending Washington Center
Mon 08:48:22 AM 38.5842 -78.3247 79° East 403 464 20,200 -1,574 Descending Washington Center
Mon 08:49:23 AM 38.6164 -78.1903 73° East 398 458 18,300 -1,765 Descending Washington Center
Mon 08:50:21 AM 38.6567 -78.0667 67° East 385 443 16,700 -1,613 Descending Washington Center
Mon 08:51:22 AM 38.7147 -77.9783 50° Northeast 337 388 15,100 -1,500 Descending Washington Center
Mon 08:52:21 AM 38.7703 -77.9108 43° Northeast 303 349 13,700 -1,450 Descending Washington Center
Mon 08:53:22 AM 38.7700 -77.8042 90° East 281 323 12,200 -893 Descending Washington Center
Mon 08:54:22 AM 38.8156 -77.7097 58° Northeast 292 336 11,900 -1,043 Descending Washington Center
Mon 08:55:17 AM 38.8500 -77.6167 65° Northeast 310 357 10,200 -1,565 Descending Potomac TRACON
Mon 08:56:17 AM 38.8833 -77.5167 67° East 305 351 8,900 -1,345 Descending Potomac TRACON
Mon 08:58:11 AM 38.8667 -77.3333 97° East 298 343 6,300 -1,000 Descending Potomac TRACON
Mon 08:59:11 AM 38.8167 -77.2500 128° Southeast 273 314 6,000 -157 Descending Potomac TRACON
Mon 09:00:06 AM 38.7833 -77.1667 117° Southeast 248 285 6,000 -495 Level Potomac TRACON
Mon 09:01:00 AM 38.7500 -77.1167 131° Southeast 243 280 5,100 -1,105 Descending Potomac TRACON
Mon 09:02:00 AM 38.6833 -77.1167 180° South 211 243 3,900 -579 Descending Potomac TRACON
Mon 09:02:54 AM 38.6500 -77.1000 159° South 178 205 4,000 53 Climbing Potomac TRACON
Mon 09:03:54 AM 38.6000 -77.1000 180° South 180 207 4,000 -50 Level Potomac TRACON
Mon 09:04:54 AM 38.6000 -77.0500 90° East 194 223 3,900 -446 Descending Potomac TRACON
Mon 09:05:55 AM 38.6500 -77.0333 15° North 181 208 3,100 -522 Descending Potomac TRACON
Mon 09:06:49 AM 38.7000 -77.0167 15° North 180 207 2,900 -526 Descending Potomac TRACON
Mon 09:07:49 AM 38.7500 -77.0333 345° North 187 215 2,100 -800 Descending Potomac TRACON
Mon 09:08:49 AM 38.7833 -77.0333 360° North 171 197 1,300 -694 Descending Potomac TRACON
Mon 09:09:50 AM 38.8333 -77.0167 15° North 122 140 700 -590 Descending Potomac TRACON

Login

Don't have an account? Register now (free) for customized features, flight alerts, and more!